createdAt,value
2023-01-07T06:00:25.040Z,7.55
2023-01-07T06:02:51.577Z,7.52
2023-01-07T06:05:18.836Z,7.51
2023-01-07T06:07:45.974Z,7.46
2023-01-07T06:10:13.179Z,7.44
2023-01-07T06:12:39.816Z,7.42
2023-01-07T06:15:07.457Z,7.40
2023-01-07T06:17:34.759Z,7.38
2023-01-07T06:20:01.588Z,7.36
2023-01-07T06:22:28.788Z,7.35
2023-01-07T06:24:55.327Z,7.33
2023-01-07T06:27:22.596Z,7.32
2023-01-07T06:29:49.184Z,7.31
2023-01-07T06:32:16.467Z,7.29
2023-01-07T06:34:43.015Z,7.28
2023-01-07T06:37:10.210Z,7.29
2023-01-07T06:39:36.751Z,7.29
2023-01-07T06:42:04.030Z,7.26
2023-01-07T06:44:30.842Z,7.28
2023-01-07T06:46:58.040Z,7.29
2023-01-07T06:49:24.598Z,7.34
2023-01-07T06:51:51.793Z,7.34
2023-01-07T06:54:18.341Z,7.34
2023-01-07T06:56:45.514Z,7.39
2023-01-07T06:59:12.114Z,7.44
2023-01-07T07:01:39.354Z,7.42
2023-01-07T07:04:07.085Z,7.46
2023-01-07T07:06:34.224Z,7.46
2023-01-07T07:09:00.953Z,7.47
2023-01-07T07:11:28.164Z,7.48
2023-01-07T07:13:54.956Z,7.50
2023-01-07T07:16:24.779Z,7.49
2023-01-07T07:18:53.117Z,7.52
2023-01-07T07:21:20.220Z,7.52
2023-01-07T07:23:46.844Z,7.53
2023-01-07T07:26:14.326Z,7.55
2023-01-07T07:28:42.750Z,7.62
2023-01-07T07:31:10.328Z,7.67
2023-01-07T07:33:37.245Z,7.73
2023-01-07T07:36:05.010Z,7.78
2023-01-07T07:38:32.183Z,7.78
2023-01-07T07:41:00.678Z,7.84
2023-01-07T07:43:27.326Z,7.88
2023-01-07T07:45:54.197Z,7.90
2023-01-07T07:48:21.479Z,7.96
2023-01-07T07:50:51.430Z,8.02
2023-01-07T07:53:19.624Z,8.10
2023-01-07T07:55:46.563Z,8.12
2023-01-07T07:58:14.371Z,8.18
2023-01-07T08:00:41.037Z,8.24
2023-01-07T08:03:08.467Z,8.29
2023-01-07T08:05:35.122Z,8.30
2023-01-07T08:08:02.389Z,8.32
2023-01-07T08:10:29.524Z,8.33
2023-01-07T08:12:56.084Z,8.42
2023-01-07T08:15:22.976Z,8.42
2023-01-07T08:17:57.879Z,8.42
2023-01-07T08:20:24.508Z,8.45
2023-01-07T08:22:51.713Z,8.48
2023-01-07T08:25:18.352Z,8.51
2023-01-07T08:27:45.664Z,8.52
2023-01-07T08:30:12.839Z,8.54
2023-01-07T08:32:39.349Z,8.54
2023-01-07T08:35:06.837Z,8.58
2023-01-07T08:37:34.058Z,8.57
2023-01-07T08:40:00.662Z,8.60
2023-01-07T08:42:28.296Z,8.64
2023-01-07T08:44:54.837Z,8.63
2023-01-07T08:47:22.054Z,8.70
2023-01-07T08:49:48.643Z,8.74
2023-01-07T08:52:15.840Z,8.77
2023-01-07T08:54:42.817Z,8.78
2023-01-07T08:57:10.167Z,8.77
2023-01-07T08:59:38.638Z,8.81
2023-01-07T09:02:05.983Z,8.83
2023-01-07T09:04:32.616Z,8.88
2023-01-07T09:06:59.822Z,8.93
2023-01-07T09:09:26.366Z,8.97
2023-01-07T09:11:53.551Z,8.97
2023-01-07T09:14:20.125Z,8.96
2023-01-07T09:16:47.290Z,8.98
2023-01-07T09:19:13.855Z,9.01
2023-01-07T09:21:41.376Z,9.05
2023-01-07T09:24:08.080Z,9.08
2023-01-07T09:26:35.293Z,9.08
2023-01-07T09:29:01.972Z,9.09
2023-01-07T09:31:29.253Z,9.14
2023-01-07T09:33:55.876Z,9.13
2023-01-07T09:36:23.021Z,9.15
2023-01-07T09:38:49.586Z,9.21
2023-01-07T09:41:58.602Z,9.25
2023-01-07T09:44:53.069Z,9.19
2023-01-07T09:47:25.436Z,9.21
2023-01-07T09:49:59.117Z,9.18
2023-01-07T09:52:37.174Z,9.19
2023-01-07T09:55:39.326Z,9.24
2023-01-07T09:58:26.923Z,9.24
2023-01-07T10:00:57.056Z,9.26
2023-01-07T10:03:29.846Z,9.33
2023-01-07T10:06:06.056Z,9.35
2023-01-07T10:08:54.362Z,9.35
2023-01-07T10:11:30.329Z,9.41
2023-01-07T10:14:11.537Z,9.44
2023-01-07T10:16:55.066Z,9.49
2023-01-07T10:19:30.177Z,9.45
2023-01-07T10:22:03.431Z,9.49
2023-01-07T10:24:39.126Z,9.51
2023-01-07T10:27:13.504Z,9.50
2023-01-07T10:29:50.850Z,9.55
2023-01-07T10:32:23.667Z,9.56
2023-01-07T10:34:56.283Z,9.54
2023-01-07T10:37:34.238Z,9.59
2023-01-07T10:40:28.712Z,9.63
2023-01-07T10:43:20.099Z,9.60
2023-01-07T10:46:05.411Z,9.68
2023-01-07T10:48:41.415Z,9.64
2023-01-07T10:51:23.842Z,9.71
2023-01-07T10:54:27.905Z,9.72
2023-01-07T10:57:01.546Z,9.74
2023-01-07T10:59:28.158Z,9.73
2023-01-07T11:01:59.463Z,9.74
2023-01-07T11:04:26.798Z,9.81
2023-01-07T11:07:04.447Z,9.79
2023-01-07T11:09:35.330Z,9.76
2023-01-07T11:12:25.611Z,9.81
2023-01-07T11:14:56.714Z,9.81
2023-01-07T11:17:34.570Z,9.81
2023-01-07T11:20:01.200Z,9.87
2023-01-07T11:22:29.861Z,9.93
2023-01-07T11:24:58.480Z,9.94
2023-01-07T11:27:28.798Z,9.92
2023-01-07T11:30:26.609Z,9.91
2023-01-07T11:32:59.360Z,9.98
2023-01-07T11:35:30.647Z,9.98
2023-01-07T11:37:59.311Z,9.94
2023-01-07T11:40:31.643Z,9.92
2023-01-07T11:43:22.354Z,9.93
2023-01-07T11:46:19.643Z,9.95
2023-01-07T11:48:57.249Z,9.92
2023-01-07T11:51:25.211Z,9.96
2023-01-07T11:53:59.958Z,10.00
2023-01-07T11:56:30.920Z,10.02
2023-01-07T11:59:35.805Z,10.02
2023-01-07T12:02:03.139Z,9.98
2023-01-07T12:04:33.060Z,9.98
2023-01-07T12:07:04.560Z,10.04
2023-01-07T12:09:31.072Z,10.05
2023-01-07T12:12:06.312Z,10.11
2023-01-07T12:14:37.519Z,10.14
2023-01-07T12:17:17.528Z,10.13
2023-01-07T12:19:52.923Z,10.19
2023-01-07T12:22:48.845Z,10.21
2023-01-07T12:25:45.863Z,10.19
2023-01-07T12:28:16.642Z,10.22
2023-01-07T12:30:54.756Z,10.24
2023-01-07T12:33:39.276Z,10.26
2023-01-07T12:36:18.623Z,10.29
2023-01-07T12:38:50.747Z,10.23
2023-01-07T12:41:23.434Z,10.21
2023-01-07T12:44:02.680Z,10.17
2023-01-07T12:46:41.369Z,10.18
2023-01-07T12:49:23.085Z,10.16
2023-01-07T12:52:13.491Z,10.16
2023-01-07T12:54:45.608Z,10.20
2023-01-07T12:57:34.480Z,10.22
2023-01-07T13:00:19.424Z,10.23
2023-01-07T13:02:56.288Z,10.17
2023-01-07T13:06:05.081Z,10.18
2023-01-07T13:08:47.145Z,10.12
2023-01-07T13:11:45.254Z,10.15
2023-01-07T13:14:32.007Z,10.08
2023-01-07T13:17:15.690Z,10.14
2023-01-07T13:19:42.485Z,10.18
2023-01-07T13:22:17.874Z,10.24
2023-01-07T13:24:59.839Z,10.21
2023-01-07T13:27:39.924Z,10.18
2023-01-07T13:30:42.038Z,10.23
2023-01-07T13:33:39.629Z,10.22
2023-01-07T13:36:28.269Z,10.14
2023-01-07T13:38:57.800Z,10.15
2023-01-07T13:41:40.146Z,10.13
2023-01-07T13:44:31.676Z,10.18
2023-01-07T13:47:02.629Z,10.08
2023-01-07T13:49:33.030Z,10.05
2023-01-07T13:52:21.086Z,10.03
2023-01-07T13:54:50.533Z,9.96
2023-01-07T13:57:23.706Z,9.96
2023-01-07T13:59:52.767Z,9.95
2023-01-07T14:02:22.772Z,9.95
2023-01-07T14:05:23.185Z,10.00
2023-01-07T14:07:59.828Z,9.99
2023-01-07T14:10:31.795Z,9.89
2023-01-07T14:13:31.569Z,9.85
2023-01-07T14:16:07.737Z,9.80
2023-01-07T14:18:57.739Z,9.75
2023-01-07T14:22:10.281Z,9.75
2023-01-07T14:24:58.334Z,9.75
2023-01-07T14:27:30.302Z,9.74
2023-01-07T14:30:15.923Z,9.73
2023-01-07T14:32:44.509Z,9.73
2023-01-07T14:35:11.579Z,9.73
2023-01-07T14:37:42.033Z,9.79
2023-01-07T14:40:27.286Z,9.78
2023-01-07T14:42:54.935Z,9.72
2023-01-07T14:45:36.815Z,9.72
2023-01-07T14:48:27.958Z,9.72
2023-01-07T14:51:19.439Z,9.68
2023-01-07T14:53:52.214Z,9.72
2023-01-07T14:56:28.410Z,9.70
2023-01-07T14:59:15.477Z,9.64
2023-01-07T15:02:18.619Z,9.67
2023-01-07T15:05:22.610Z,9.65
2023-01-07T15:08:27.717Z,9.62
2023-01-07T15:11:17.436Z,9.53
2023-01-07T15:14:20.301Z,9.50
2023-01-07T15:16:50.748Z,9.50
2023-01-07T15:19:17.646Z,9.48
2023-01-07T15:22:07.993Z,9.44
2023-01-07T15:25:01.419Z,9.43
2023-01-07T15:27:35.036Z,9.38
2023-01-07T15:30:02.240Z,9.39
2023-01-07T15:33:01.243Z,9.38
2023-01-07T15:35:40.829Z,9.35
2023-01-07T15:38:24.373Z,9.31
2023-01-07T15:40:51.749Z,9.36
2023-01-07T15:43:25.236Z,9.31
2023-01-07T15:46:06.696Z,9.24
2023-01-07T15:48:33.716Z,9.21
2023-01-07T15:51:00.999Z,9.21
2023-01-07T15:53:30.010Z,9.19
2023-01-07T15:56:05.724Z,9.20
2023-01-07T15:58:40.169Z,9.13
2023-01-07T16:01:13.789Z,9.13
2023-01-07T16:03:42.228Z,9.01
2023-01-07T16:06:34.987Z,9.03
2023-01-07T16:09:18.441Z,9.00
2023-01-07T16:11:46.245Z,8.99
2023-01-07T16:14:18.415Z,8.93
2023-01-07T16:16:45.884Z,8.92
2023-01-07T16:19:20.754Z,8.89
2023-01-07T16:21:59.951Z,8.89
2023-01-07T16:24:26.899Z,8.84
2023-01-07T16:26:59.555Z,8.81
2023-01-07T16:29:30.242Z,8.73
2023-01-07T16:31:59.105Z,8.71
2023-01-07T16:34:25.587Z,8.64
2023-01-07T16:36:55.785Z,8.58
2023-01-07T16:39:26.207Z,8.56
2023-01-07T16:42:12.719Z,8.51
2023-01-07T16:44:44.083Z,8.46
2023-01-07T16:47:23.983Z,8.40
2023-01-07T16:49:51.350Z,8.34
2023-01-07T16:52:20.689Z,8.34
2023-01-07T16:54:48.553Z,8.27
2023-01-07T16:57:15.725Z,8.21
2023-01-07T16:59:55.360Z,8.16
2023-01-07T17:02:42.211Z,8.09
2023-01-07T17:05:26.372Z,8.06
2023-01-07T17:08:01.203Z,8.01
2023-01-07T17:10:32.124Z,7.98
2023-01-07T17:13:01.411Z,7.95
2023-01-07T17:15:34.572Z,7.89
2023-01-07T17:18:26.628Z,7.85
2023-01-07T17:20:56.030Z,7.82
2023-01-07T17:23:25.566Z,7.79
2023-01-07T17:26:05.151Z,7.74
2023-01-07T17:28:34.396Z,7.67
2023-01-07T17:31:02.112Z,7.62
2023-01-07T17:33:28.870Z,7.58
2023-01-07T17:35:57.717Z,7.55
2023-01-07T17:38:24.463Z,7.49
2023-01-07T17:40:52.439Z,7.49
2023-01-07T17:43:34.007Z,7.46
2023-01-07T17:46:11.128Z,7.42
2023-01-07T17:48:38.779Z,7.37
2023-01-07T17:51:07.418Z,7.34
2023-01-07T17:53:39.174Z,7.31
2023-01-07T17:56:06.765Z,7.27
2023-01-07T17:58:35.602Z,7.19
2023-01-07T18:01:06.813Z,7.17
2023-01-07T18:03:33.670Z,7.16
2023-01-07T18:06:01.064Z,7.12
2023-01-07T18:08:27.724Z,7.13
2023-01-07T18:11:15.052Z,7.08
2023-01-07T18:13:41.862Z,7.03
2023-01-07T18:16:12.793Z,7.00
2023-01-07T18:18:39.405Z,6.99
2023-01-07T18:21:06.676Z,6.97
2023-01-07T18:23:33.310Z,6.99
2023-01-07T18:26:00.488Z,7.06
2023-01-07T18:28:27.065Z,7.01
2023-01-07T18:30:54.258Z,7.02
2023-01-07T18:33:20.834Z,7.06
2023-01-07T18:35:48.497Z,7.05
2023-01-07T18:38:16.394Z,7.06
2023-01-07T18:40:43.822Z,7.00
2023-01-07T18:43:18.436Z,6.99
2023-01-07T18:45:46.925Z,6.98
2023-01-07T18:48:15.642Z,7.00
2023-01-07T18:50:48.213Z,7.00
2023-01-07T18:53:16.102Z,7.02
2023-01-07T18:55:44.211Z,7.01
2023-01-07T18:58:14.272Z,7.00
2023-01-07T19:00:42.471Z,6.97
2023-01-07T19:03:10.614Z,6.94
2023-01-07T19:05:39.731Z,6.96
2023-01-07T19:08:06.505Z,6.93
2023-01-07T19:10:33.632Z,6.91
2023-01-07T19:13:01.053Z,6.89
2023-01-07T19:15:28.385Z,6.87
2023-01-07T19:17:55.550Z,6.88
2023-01-07T19:20:22.823Z,6.87
2023-01-07T19:22:49.424Z,6.83
2023-01-07T19:25:16.772Z,6.81
2023-01-07T19:27:43.416Z,6.79
2023-01-07T19:30:10.982Z,6.77
2023-01-07T19:32:37.583Z,6.76
2023-01-07T19:35:05.197Z,6.75
2023-01-07T19:37:31.750Z,6.77
2023-01-07T19:39:58.896Z,6.73
2023-01-07T19:42:25.460Z,6.77
2023-01-07T19:44:52.712Z,6.76
2023-01-07T19:47:19.208Z,6.76
2023-01-07T19:49:46.373Z,6.74
2023-01-07T19:52:13.689Z,6.73
2023-01-07T19:54:42.040Z,6.72
2023-01-07T19:57:09.035Z,6.74
2023-01-07T19:59:36.316Z,6.76
2023-01-07T20:02:03.830Z,6.70
2023-01-07T20:04:31.412Z,6.66
2023-01-07T20:06:58.077Z,6.67
2023-01-07T20:09:25.355Z,6.63
2023-01-07T20:11:51.950Z,6.64
2023-01-07T20:14:19.122Z,6.58
2023-01-07T20:16:45.824Z,6.59
2023-01-07T20:19:13.921Z,6.58
2023-01-07T20:21:40.547Z,6.58
2023-01-07T20:24:08.228Z,6.56
2023-01-07T20:26:38.043Z,6.56
2023-01-07T20:29:05.569Z,6.56
2023-01-07T20:31:32.474Z,6.57
2023-01-07T20:34:00.854Z,6.59
2023-01-07T20:36:30.474Z,6.62
2023-01-07T20:38:58.158Z,6.65
2023-01-07T20:41:27.289Z,6.66
2023-01-07T20:43:59.460Z,6.69
2023-01-07T20:46:28.080Z,6.71
2023-01-07T20:48:55.761Z,6.71
2023-01-07T20:51:22.466Z,6.75
2023-01-07T20:53:49.727Z,6.81
2023-01-07T20:56:18.920Z,6.84
2023-01-07T20:58:47.200Z,6.87
2023-01-07T21:01:16.456Z,6.89
2023-01-07T21:03:43.838Z,6.95
2023-01-07T21:06:12.979Z,7.00
2023-01-07T21:08:40.109Z,7.01
2023-01-07T21:11:13.333Z,7.08
2023-01-07T21:13:40.217Z,7.06
2023-01-07T21:16:07.683Z,7.09
2023-01-07T21:18:34.980Z,7.15
2023-01-07T21:21:08.036Z,7.22
2023-01-07T21:23:34.603Z,7.20
2023-01-07T21:26:01.939Z,7.19
2023-01-07T21:28:28.481Z,7.22
